Time;durP1;ratioP1;P1;durP2;ratioP2;P2;SDS_P1;SDS_P2;PMS_P1;PMS_P2;Temp;Humidity;BMP_temperature;BMP_pressure;BME280_temperature;BME280_humidity;BME280_pressure;Samples;Min_cycle;Max_cycle;Signal;HPM_P1;HPM_P2
2022/01/11 00:01:17;;;;;;;29.42;17.55;;;5.30;99.90;;;;;;5039195;28;20039;-53
2022/01/11 00:04:01;;;;;;;23.17;14.77;;;5.30;99.90;;;;;;5037530;28;20075;-51
2022/01/11 00:06:49;;;;;;;25.35;15.68;;;5.30;99.90;;;;;;5041659;28;20376;-49
2022/01/11 00:09:39;;;;;;;21.42;15.57;;;5.10;99.90;;;;;;5052955;28;20071;-47
2022/01/11 00:12:23;;;;;;;22.80;15.60;;;5.10;99.90;;;;;;5052544;28;20035;-49
2022/01/11 00:15:07;;;;;;;23.75;16.13;;;4.80;99.90;;;;;;5037075;28;20535;-49
2022/01/11 00:17:52;;;;;;;24.33;16.80;;;4.60;99.90;;;;;;5050794;28;20028;-52
2022/01/11 00:20:38;;;;;;;24.52;17.58;;;4.50;99.90;;;;;;5041382;28;20479;-53
2022/01/11 00:26:07;;;;;;;25.57;16.27;;;4.60;99.90;;;;;;5046823;28;20048;-54
2022/01/11 00:28:50;;;;;;;28.65;17.35;;;4.50;99.90;;;;;;5051324;28;20254;-55
2022/01/11 00:31:35;;;;;;;24.47;16.63;;;4.50;99.90;;;;;;5052071;28;20090;-58
2022/01/11 00:34:21;;;;;;;25.85;17.65;;;4.50;99.90;;;;;;5052021;28;20099;-57
2022/01/11 00:37:07;;;;;;;23.35;17.80;;;4.50;99.90;;;;;;5048624;28;20126;-54
2022/01/11 00:39:52;;;;;;;27.40;18.77;;;4.50;99.90;;;;;;5050249;28;20083;-55
2022/01/11 00:42:37;;;;;;;26.65;17.95;;;4.50;99.90;;;;;;5046840;28;20082;-51
2022/01/11 00:45:21;;;;;;;27.23;18.48;;;4.60;99.90;;;;;;5044563;28;20043;-55
2022/01/11 00:48:05;;;;;;;28.17;18.23;;;4.60;99.90;;;;;;5044241;28;20063;-57
2022/01/11 00:50:50;;;;;;;26.13;18.43;;;4.60;99.90;;;;;;5050683;28;20653;-53
2022/01/11 00:53:35;;;;;;;;;;;4.70;99.90;;;;;;5040289;28;20728;-53
2022/01/11 00:56:19;;;;;;;25.58;16.42;;;4.70;99.90;;;;;;5041674;28;19923;-56
2022/01/11 00:59:03;;;;;;;26.50;17.08;;;4.80;99.90;;;;;;5040367;28;20076;-56
2022/01/11 01:01:48;;;;;;;26.85;17.90;;;4.80;99.90;;;;;;5038843;28;20125;-55
2022/01/11 01:04:32;;;;;;;27.13;18.00;;;4.70;99.90;;;;;;5041367;28;21729;-54
2022/01/11 01:07:17;;;;;;;30.17;18.35;;;4.70;99.90;;;;;;5044060;28;20534;-57
2022/01/11 01:10:08;;;;;;;27.35;18.17;;;4.60;99.90;;;;;;5042259;28;20114;-54
2022/01/11 01:12:54;;;;;;;28.75;17.63;;;4.50;99.90;;;;;;5055248;28;20044;-54
2022/01/11 01:15:38;;;;;;;24.38;17.65;;;4.50;99.90;;;;;;5043186;28;20074;-55
2022/01/11 01:18:26;;;;;;;26.25;17.13;;;4.50;99.90;;;;;;5051225;28;20514;-56
2022/01/11 01:21:10;;;;;;;25.73;17.40;;;4.50;99.90;;;;;;5054873;28;20032;-56
2022/01/11 01:23:54;;;;;;;32.93;21.83;;;4.40;99.90;;;;;;5055406;28;20032;-56
2022/01/11 01:26:38;;;;;;;25.90;16.98;;;4.40;99.90;;;;;;5047987;28;20066;-56
2022/01/11 01:29:23;;;;;;;24.60;16.65;;;4.40;99.90;;;;;;5047213;28;20050;-57
2022/01/11 01:32:08;;;;;;;21.55;15.15;;;4.50;99.90;;;;;;5045626;28;20087;-51
2022/01/11 01:34:53;;;;;;;22.45;15.55;;;4.50;99.90;;;;;;5054914;28;20549;-57
2022/01/11 01:37:37;;;;;;;;;;;4.50;99.90;;;;;;5049310;28;20133;-55
2022/01/11 01:40:21;;;;;;;21.92;14.80;;;4.60;99.90;;;;;;5043226;28;19931;-55
2022/01/11 01:43:09;;;;;;;21.50;14.87;;;4.40;99.90;;;;;;5043883;28;20045;-56
2022/01/11 01:45:58;;;;;;;22.20;14.85;;;4.40;99.90;;;;;;5048466;28;20056;-56
2022/01/11 01:48:42;;;;;;;20.25;14.38;;;4.40;99.90;;;;;;5054158;28;20047;-52
2022/01/11 01:51:30;;;;;;;19.02;13.60;;;4.50;99.90;;;;;;5043506;28;20056;-56
2022/01/11 01:54:14;;;;;;;19.60;14.05;;;4.60;99.90;;;;;;5041069;28;20060;-54
2022/01/11 01:56:59;;;;;;;;;;;4.50;99.90;;;;;;5038704;28;20052;-56
2022/01/11 01:59:43;;;;;;;18.85;12.85;;;4.60;99.90;;;;;;5068575;28;19915;-52
2022/01/11 02:02:27;;;;;;;18.63;13.23;;;4.50;99.90;;;;;;5055657;28;20032;-53
2022/01/11 02:05:12;;;;;;;20.70;13.43;;;4.40;99.90;;;;;;5040618;28;20108;-51
2022/01/11 02:07:56;;;;;;;23.17;14.65;;;4.40;99.90;;;;;;5056953;28;20554;-53
2022/01/11 02:10:40;;;;;;;20.52;14.27;;;4.40;99.90;;;;;;5039902;28;20099;-55
2022/01/11 02:13:24;;;;;;;19.27;13.00;;;4.30;99.90;;;;;;5055940;28;20471;-53
2022/01/11 02:16:08;;;;;;;18.80;13.15;;;4.40;99.90;;;;;;5041868;28;20076;-56
2022/01/11 02:18:53;;;;;;;19.63;13.47;;;4.50;99.90;;;;;;5052124;28;20048;-53
2022/01/11 02:21:38;;;;;;;;;;;4.50;99.90;;;;;;5045659;28;20040;-56
2022/01/11 02:24:23;;;;;;;20.20;13.18;;;4.50;99.90;;;;;;5050448;28;19921;-54
2022/01/11 02:27:07;;;;;;;16.85;12.88;;;4.40;99.90;;;;;;5040463;28;20040;-51
2022/01/11 02:29:53;;;;;;;20.85;13.68;;;4.40;99.90;;;;;;5056010;28;20040;-55
2022/01/11 02:32:48;;;;;;;19.40;13.10;;;4.40;99.90;;;;;;5055985;28;20082;-54
2022/01/11 02:35:32;;;;;;;19.95;13.50;;;4.40;99.90;;;;;;5055863;28;20098;-51
2022/01/11 02:38:17;;;;;;;19.30;12.93;;;4.40;99.90;;;;;;5056017;28;20087;-54
2022/01/11 02:41:02;;;;;;;20.45;12.75;;;4.40;99.90;;;;;;5056161;28;20036;-54
2022/01/11 02:43:48;;;;;;;18.83;12.98;;;4.40;99.90;;;;;;5057321;28;20461;-54
2022/01/11 02:46:32;;;;;;;19.55;13.77;;;4.40;99.90;;;;;;5056571;28;20063;-56
2022/01/11 02:49:16;;;;;;;20.70;14.23;;;4.50;99.90;;;;;;5069699;28;20443;-57
2022/01/11 02:52:00;;;;;;;20.33;14.43;;;4.50;99.90;;;;;;5055525;28;20095;-68
2022/01/11 02:54:44;;;;;;;16.52;11.52;;;4.60;99.90;;;;;;5069176;28;20035;-60
2022/01/11 02:57:28;;;;;;;18.42;13.55;;;4.50;99.90;;;;;;5055898;28;20025;-55
2022/01/11 03:00:16;;;;;;;19.38;12.93;;;4.60;99.90;;;;;;5056533;28;20032;-57
2022/01/11 03:03:17;;;;;;;19.50;13.70;;;4.60;99.90;;;;;;5055315;28;20040;-58
2022/01/11 03:06:04;;;;;;;18.15;13.10;;;4.70;99.90;;;;;;5055718;28;20102;-58
2022/01/11 03:08:49;;;;;;;15.93;11.93;;;4.70;99.90;;;;;;5055376;28;20060;-57
2022/01/11 03:11:34;;;;;;;18.48;12.43;;;4.80;99.90;;;;;;5055195;28;20112;-58
2022/01/11 03:14:22;;;;;;;18.67;12.70;;;4.80;99.90;;;;;;5068082;28;20067;-58
2022/01/11 03:17:06;;;;;;;18.55;12.70;;;4.70;99.90;;;;;;5055359;28;20155;-59
2022/01/11 03:19:50;;;;;;;16.30;11.98;;;4.70;99.90;;;;;;5056066;28;20067;-58
2022/01/11 03:22:34;;;;;;;18.03;12.93;;;4.60;99.90;;;;;;5055179;28;20079;-59
2022/01/11 03:25:18;;;;;;;16.77;11.85;;;4.50;99.90;;;;;;5055231;28;20504;-57
2022/01/11 03:28:04;;;;;;;18.08;12.60;;;4.50;99.90;;;;;;5054940;28;20090;-60
2022/01/11 03:30:50;;;;;;;17.05;13.25;;;4.40;99.90;;;;;;5054377;28;20040;-60
2022/01/11 03:33:35;;;;;;;17.05;11.90;;;4.30;99.90;;;;;;5053664;28;20051;-61
2022/01/11 03:36:19;;;;;;;17.33;12.07;;;4.40;99.90;;;;;;5054580;28;20089;-58
2022/01/11 03:39:03;;;;;;;17.38;12.25;;;4.20;99.90;;;;;;5055090;28;20431;-59
2022/01/11 03:41:48;;;;;;;17.13;11.65;;;4.20;99.90;;;;;;5053945;28;20372;-57
2022/01/11 03:44:33;;;;;;;15.27;11.32;;;4.30;99.90;;;;;;5054453;28;20036;-60
2022/01/11 03:47:18;;;;;;;16.15;11.98;;;4.30;99.90;;;;;;5054561;28;20032;-58
2022/01/11 03:50:07;;;;;;;;;;;4.30;99.90;;;;;;5055250;28;20040;-58
2022/01/11 03:52:59;;;;;;;16.52;11.60;;;4.30;99.90;;;;;;5054702;28;20152;-59
2022/01/11 03:58:40;;;;;;;17.67;13.18;;;4.40;99.90;;;;;;5054191;28;20036;-57
2022/01/11 04:01:25;;;;;;;15.75;11.55;;;4.40;99.90;;;;;;5054492;28;20037;-58
2022/01/11 04:04:10;;;;;;;18.40;13.25;;;4.40;99.90;;;;;;5052936;28;20528;-57
2022/01/11 04:06:54;;;;;;;;;;;4.40;99.90;;;;;;5054818;28;20388;-58
2022/01/11 04:09:38;;;;;;;18.70;12.10;;;4.40;99.90;;;;;;5053770;28;19915;-59
2022/01/11 04:12:23;;;;;;;16.98;12.10;;;4.40;99.90;;;;;;5067127;28;20047;-59
2022/01/11 04:15:08;;;;;;;20.45;13.45;;;4.40;99.90;;;;;;5054327;28;20064;-59
2022/01/11 04:17:52;;;;;;;17.13;12.00;;;4.40;99.90;;;;;;5053733;28;20451;-56
2022/01/11 04:20:37;;;;;;;18.80;12.55;;;4.40;99.90;;;;;;5053200;28;20035;-57
2022/01/11 04:23:23;;;;;;;22.90;14.65;;;4.30;99.90;;;;;;5053265;28;20048;-58
2022/01/11 04:26:07;;;;;;;19.88;12.98;;;4.30;99.90;;;;;;5054192;28;20561;-57
2022/01/11 04:28:51;;;;;;;16.38;12.40;;;4.30;99.90;;;;;;5053108;28;20105;-54
2022/01/11 04:31:38;;;;;;;15.40;12.00;;;4.40;99.90;;;;;;5052806;28;20119;-58
2022/01/11 04:34:25;;;;;;;16.63;11.38;;;4.40;99.90;;;;;;5053275;28;20977;-57
2022/01/11 04:37:12;;;;;;;15.23;10.68;;;4.40;99.90;;;;;;5053033;28;20558;-58
2022/01/11 04:39:56;;;;;;;18.08;12.25;;;4.40;99.90;;;;;;5053798;28;20116;-59
2022/01/11 04:42:41;;;;;;;16.58;12.07;;;4.30;99.90;;;;;;5052481;28;20083;-54
2022/01/11 04:45:25;;;;;;;17.20;12.30;;;4.20;99.90;;;;;;5053078;28;20040;-58
2022/01/11 04:48:10;;;;;;;17.63;12.65;;;4.20;99.90;;;;;;5053193;28;20036;-58
2022/01/11 04:50:54;;;;;;;16.63;12.00;;;4.20;99.90;;;;;;5053079;28;20056;-60
2022/01/11 04:53:40;;;;;;;16.73;12.37;;;4.20;99.90;;;;;;5053136;28;20116;-59
2022/01/11 04:56:24;;;;;;;16.75;11.90;;;4.20;99.90;;;;;;5066795;28;20392;-56
2022/01/11 04:59:08;;;;;;;18.85;12.07;;;4.20;99.90;;;;;;5053512;28;20052;-58
2022/01/11 05:01:52;;;;;;;16.10;11.70;;;4.30;99.90;;;;;;5053409;28;20552;-59
2022/01/11 05:04:36;;;;;;;18.80;12.15;;;4.30;99.90;;;;;;5053454;28;20117;-54
2022/01/11 05:07:21;;;;;;;17.30;12.48;;;4.30;99.90;;;;;;5066847;28;20163;-55
2022/01/11 05:10:05;;;;;;;17.53;12.10;;;4.30;99.90;;;;;;5053384;28;20082;-53
2022/01/11 05:12:50;;;;;;;18.48;12.10;;;4.20;99.90;;;;;;5053075;28;20286;-55
2022/01/11 05:15:35;;;;;;;32.72;21.02;;;4.10;99.90;;;;;;5053003;28;20037;-56
2022/01/11 05:18:19;;;;;;;19.42;13.43;;;4.20;99.90;;;;;;5066404;28;20040;-55
2022/01/11 05:21:04;;;;;;;21.20;13.15;;;4.30;99.90;;;;;;5053402;28;20064;-50
2022/01/11 05:23:48;;;;;;;21.00;13.90;;;4.30;99.90;;;;;;5052701;28;20063;-56
2022/01/11 05:26:32;;;;;;;19.67;13.95;;;4.10;99.90;;;;;;5053114;28;20178;-53
2022/01/11 05:29:17;;;;;;;20.60;13.68;;;4.00;99.90;;;;;;5053018;28;20039;-53
2022/01/11 05:32:03;;;;;;;20.25;13.85;;;4.10;99.90;;;;;;5052129;28;20075;-55
2022/01/11 05:34:46;;;;;;;19.13;13.07;;;4.20;99.90;;;;;;5052285;28;20091;-55
2022/01/11 05:37:31;;;;;;;18.87;13.70;;;4.20;99.90;;;;;;5052985;28;20068;-55
2022/01/11 05:40:16;;;;;;;19.33;13.63;;;4.10;99.90;;;;;;5052789;28;20431;-55
2022/01/11 05:43:00;;;;;;;;;;;4.20;99.90;;;;;;5051973;28;20040;-52
2022/01/11 05:45:44;;;;;;;20.40;14.55;;;4.20;99.90;;;;;;5051462;28;19963;-56
2022/01/11 05:48:32;;;;;;;18.50;13.02;;;4.20;99.90;;;;;;5052721;28;20068;-58
2022/01/11 05:51:16;;;;;;;18.60;13.60;;;4.10;99.90;;;;;;5052843;28;20052;-53
2022/01/11 05:54:00;;;;;;;18.20;13.05;;;4.10;99.90;;;;;;5065529;28;20044;-52
2022/01/11 05:56:44;;;;;;;19.80;13.43;;;4.10;99.90;;;;;;5052565;28;20543;-55
2022/01/11 05:59:31;;;;;;;21.73;13.93;;;4.10;99.90;;;;;;5053292;28;20086;-51
2022/01/11 06:02:15;;;;;;;18.20;12.90;;;4.10;99.90;;;;;;5056264;28;20512;-52
2022/01/11 06:04:59;;;;;;;16.77;12.48;;;4.10;99.90;;;;;;5056136;28;20068;-56
2022/01/11 06:07:43;;;;;;;18.33;13.20;;;4.00;99.90;;;;;;5055581;28;20106;-54
2022/01/11 06:10:28;;;;;;;19.63;13.30;;;4.00;99.90;;;;;;5055921;28;20032;-53
2022/01/11 06:13:12;;;;;;;18.10;12.82;;;3.90;99.90;;;;;;5056229;28;20055;-53
2022/01/11 06:15:56;;;;;;;18.08;12.55;;;3.90;99.90;;;;;;5056006;28;20024;-53
2022/01/11 06:18:40;;;;;;;14.95;11.20;;;3.90;99.90;;;;;;5055342;28;20076;-52
2022/01/11 06:21:24;;;;;;;16.52;11.45;;;4.00;99.90;;;;;;5068521;28;20079;-54
2022/01/11 06:24:08;;;;;;;16.55;12.25;;;3.90;99.90;;;;;;5048482;28;20091;-52
2022/01/11 06:26:52;;;;;;;16.98;12.13;;;3.80;99.90;;;;;;5035674;28;20044;-58
2022/01/11 06:29:36;;;;;;;16.05;12.20;;;3.80;99.90;;;;;;5035176;28;20520;-53
2022/01/11 06:32:20;;;;;;;17.83;12.25;;;3.80;99.90;;;;;;5040599;28;20620;-56
2022/01/11 06:35:06;;;;;;;18.80;13.95;;;3.70;99.90;;;;;;5055813;28;20040;-53
2022/01/11 06:37:50;;;;;;;;;;;3.70;99.90;;;;;;5056271;28;20056;-57
2022/01/11 06:40:37;;;;;;;22.95;14.40;;;3.80;99.90;;;;;;5055669;28;19962;-57
2022/01/11 06:43:21;;;;;;;20.90;13.00;;;3.70;99.90;;;;;;5053941;28;20076;-56
2022/01/11 06:46:06;;;;;;;18.15;12.68;;;3.70;99.90;;;;;;5055398;28;20083;-53
2022/01/11 06:48:51;;;;;;;17.35;11.70;;;3.70;99.90;;;;;;5055035;28;20522;-52
2022/01/11 06:51:35;;;;;;;;;;;3.70;99.90;;;;;;5055604;28;20044;-56
2022/01/11 06:54:19;;;;;;;17.40;11.88;;;3.70;99.90;;;;;;5055716;28;19916;-51
2022/01/11 06:57:03;;;;;;;19.48;12.13;;;3.80;99.90;;;;;;5067620;28;20090;-54
2022/01/11 06:59:47;;;;;;;19.63;14.03;;;3.80;99.90;;;;;;5054748;28;20044;-55
2022/01/11 07:02:31;;;;;;;23.45;15.32;;;3.70;99.90;;;;;;5048992;28;20039;-56
2022/01/11 07:05:17;;;;;;;23.10;15.73;;;3.70;99.90;;;;;;5034176;28;20056;-60
2022/01/11 07:08:01;;;;;;;26.08;15.68;;;3.80;99.90;;;;;;5041027;28;20032;-58
2022/01/11 07:10:45;;;;;;;29.33;16.87;;;3.80;99.90;;;;;;5053338;28;20028;-60
2022/01/11 07:13:29;;;;;;;24.50;17.30;;;3.70;99.90;;;;;;5053708;28;20519;-61
2022/01/11 07:16:13;;;;;;;34.65;22.35;;;3.80;99.90;;;;;;5054280;28;20350;-60
2022/01/11 07:18:57;;;;;;;49.72;27.63;;;3.80;99.90;;;;;;5050565;28;20401;-57
2022/01/11 07:21:44;;;;;;;54.90;28.65;;;3.80;99.90;;;;;;5044187;28;20450;-59
2022/01/11 07:24:28;;;;;;;62.55;32.20;;;3.80;99.90;;;;;;5044367;28;20396;-60
2022/01/11 07:27:14;;;;;;;63.95;33.45;;;3.80;99.90;;;;;;5039554;28;20123;-60
2022/01/11 07:29:58;;;;;;;62.50;31.85;;;3.70;99.90;;;;;;5050874;28;20044;-57
2022/01/11 07:32:42;;;;;;;63.75;33.45;;;3.70;99.90;;;;;;5054132;28;20124;-56
2022/01/11 07:35:27;;;;;;;64.53;36.35;;;3.60;99.90;;;;;;5052049;28;20404;-60
2022/01/11 07:38:11;;;;;;;70.05;37.90;;;3.60;99.90;;;;;;5053698;28;20574;-60
2022/01/11 07:40:56;;;;;;;75.32;41.58;;;3.60;99.90;;;;;;5053495;28;20409;-58
2022/01/11 07:43:40;;;;;;;80.72;43.38;;;3.50;99.90;;;;;;5053892;28;20043;-59
2022/01/11 07:46:24;;;;;;;84.13;44.80;;;3.50;99.90;;;;;;5054055;28;20548;-60
2022/01/11 07:49:08;;;;;;;85.88;46.60;;;3.40;99.90;;;;;;5052067;28;20463;-58
2022/01/11 07:51:52;;;;;;;98.80;49.37;;;3.40;99.90;;;;;;5052566;28;20091;-59
2022/01/11 07:54:37;;;;;;;101.43;50.30;;;3.40;99.90;;;;;;5054200;28;20324;-56
2022/01/11 07:57:22;;;;;;;109.32;53.13;;;3.30;99.90;;;;;;5053554;28;20044;-58
2022/01/11 08:00:07;;;;;;;;;;;3.20;99.90;;;;;;5053928;28;20032;-59
2022/01/11 08:02:51;;;;;;;101.80;51.83;;;3.30;99.90;;;;;;5053688;28;19911;-58
2022/01/11 08:05:35;;;;;;;109.30;53.47;;;3.30;99.90;;;;;;5053614;28;20523;-60
2022/01/11 08:08:19;;;;;;;107.93;53.90;;;3.30;99.90;;;;;;5053168;28;20508;-60
2022/01/11 08:11:04;;;;;;;114.97;55.50;;;3.30;99.90;;;;;;5052435;28;20088;-60
2022/01/11 08:13:47;;;;;;;121.97;58.97;;;3.30;99.90;;;;;;5053118;28;20040;-60
2022/01/11 08:16:31;;;;;;;116.75;57.28;;;3.30;99.90;;;;;;5053645;28;20448;-60
2022/01/11 08:19:15;;;;;;;134.63;62.95;;;3.30;99.90;;;;;;5053263;28;20040;-60
2022/01/11 08:21:59;;;;;;;121.32;58.25;;;3.30;99.90;;;;;;5048071;28;20032;-58
2022/01/11 08:24:46;;;;;;;126.07;61.25;;;3.30;99.90;;;;;;5043947;28;20515;-60
2022/01/11 08:27:31;;;;;;;118.97;59.90;;;3.30;99.90;;;;;;5050834;28;20036;-59
2022/01/11 08:30:16;;;;;;;123.57;60.50;;;3.40;99.90;;;;;;5052859;28;20036;-62
2022/01/11 08:33:01;;;;;;;119.82;59.50;;;3.40;99.90;;;;;;5052664;28;20063;-59
2022/01/11 08:35:45;;;;;;;119.90;58.08;;;3.50;99.90;;;;;;5052654;28;20075;-60
2022/01/11 08:38:28;;;;;;;119.05;59.50;;;3.40;99.90;;;;;;5051970;28;20083;-61
2022/01/11 08:41:13;;;;;;;123.32;58.25;;;3.40;99.90;;;;;;5053407;28;20036;-61
2022/01/11 08:43:57;;;;;;;118.03;54.30;;;3.30;99.90;;;;;;5038016;28;20035;-57
2022/01/11 08:46:43;;;;;;;115.13;58.17;;;3.20;99.90;;;;;;5045873;28;20508;-60
2022/01/11 08:49:27;;;;;;;118.00;56.88;;;3.20;99.90;;;;;;5052985;28;20036;-60
2022/01/11 08:52:12;;;;;;;113.23;54.93;;;3.20;99.90;;;;;;5053386;28;20085;-58
2022/01/11 08:54:57;;;;;;;90.95;44.58;;;3.20;99.90;;;;;;5033549;28;20345;-58
2022/01/11 08:57:41;;;;;;;100.95;48.75;;;3.20;99.90;;;;;;5051967;28;20117;-57
2022/01/11 09:00:26;;;;;;;96.80;46.35;;;3.20;99.90;;;;;;5052223;28;20091;-60
2022/01/11 09:03:10;;;;;;;104.55;47.38;;;3.20;99.90;;;;;;5051337;28;20044;-58
2022/01/11 09:05:54;;;;;;;100.47;48.90;;;3.20;99.90;;;;;;5053042;28;20155;-59
2022/01/11 09:08:39;;;;;;;96.93;48.85;;;3.20;99.90;;;;;;5051788;28;20044;-58
2022/01/11 09:11:23;;;;;;;93.47;47.17;;;3.30;99.90;;;;;;5050136;28;20079;-57
2022/01/11 09:14:07;;;;;;;98.47;46.08;;;3.20;99.90;;;;;;5052628;28;20059;-58
2022/01/11 09:16:52;;;;;;;105.93;49.58;;;3.20;99.90;;;;;;5052488;28;20035;-61
2022/01/11 09:19:36;;;;;;;106.22;50.13;;;3.10;99.90;;;;;;5052263;28;20067;-59
2022/01/11 09:22:21;;;;;;;102.45;49.80;;;3.10;99.90;;;;;;5051543;28;20099;-58
2022/01/11 09:25:07;;;;;;;105.97;49.03;;;3.10;99.90;;;;;;5052160;28;20044;-60
2022/01/11 09:27:53;;;;;;;99.30;48.97;;;3.20;99.90;;;;;;5051869;28;20039;-60
2022/01/11 09:30:38;;;;;;;103.03;48.92;;;3.20;99.90;;;;;;5051406;28;20047;-59
2022/01/11 09:33:23;;;;;;;98.22;49.80;;;3.20;99.90;;;;;;5053183;28;20040;-61
2022/01/11 09:36:06;;;;;;;99.93;50.25;;;3.30;99.90;;;;;;5055502;28;20087;-60
2022/01/11 09:38:51;;;;;;;104.10;50.42;;;3.30;99.90;;;;;;5048551;28;20036;-62
2022/01/11 09:41:35;;;;;;;102.82;51.22;;;3.20;99.90;;;;;;5055257;28;20082;-60
2022/01/11 09:44:20;;;;;;;97.18;47.60;;;3.20;99.90;;;;;;5055439;28;20043;-60
2022/01/11 09:47:11;;;;;;;105.00;52.85;;;3.20;99.90;;;;;;5055732;28;20083;-60
2022/01/11 09:49:59;;;;;;;105.10;49.95;;;3.20;99.90;;;;;;5056304;28;20047;-58
2022/01/11 09:52:44;;;;;;;110.95;53.85;;;3.20;99.90;;;;;;5054101;28;20079;-59
2022/01/11 09:55:28;;;;;;;115.93;54.53;;;3.20;99.90;;;;;;5052757;28;20126;-62
2022/01/11 09:58:14;;;;;;;117.75;57.58;;;3.20;99.90;;;;;;5050979;28;20039;-59
2022/01/11 10:00:59;;;;;;;106.45;52.17;;;3.30;99.90;;;;;;5054837;28;20041;-60
2022/01/11 10:04:06;;;;;;;110.72;53.08;;;3.30;99.90;;;;;;5055342;28;20400;-60
2022/01/11 10:06:59;;;;;;;105.88;52.60;;;3.30;99.90;;;;;;5055773;28;20087;-60
2022/01/11 10:09:47;;;;;;;102.88;51.08;;;3.40;99.90;;;;;;5055364;28;20466;-61
2022/01/11 10:12:42;;;;;;;103.22;51.22;;;3.40;99.90;;;;;;5047371;28;20027;-62
2022/01/11 10:15:29;;;;;;;106.60;53.22;;;3.40;99.90;;;;;;5048242;28;20035;-58
2022/01/11 10:18:35;;;;;;;113.40;55.53;;;3.50;99.90;;;;;;5040852;28;20516;-60
2022/01/11 10:21:45;;;;;;;107.78;51.30;;;3.50;99.90;;;;;;5054444;28;20052;-59
2022/01/11 10:24:42;;;;;;;112.38;51.03;;;3.50;99.90;;;;;;5051678;28;20090;-59
2022/01/11 10:27:30;;;;;;;104.78;52.67;;;3.60;99.90;;;;;;5054985;28;20443;-59
2022/01/11 10:30:18;;;;;;;109.78;52.83;;;3.60;99.90;;;;;;5055276;28;20044;-60
2022/01/11 10:33:08;;;;;;;112.20;53.22;;;3.60;99.90;;;;;;5054844;28;20032;-61
2022/01/11 10:35:52;;;;;;;102.95;52.13;;;3.50;99.90;;;;;;5054202;28;20040;-60
2022/01/11 10:38:37;;;;;;;110.85;52.10;;;3.50;99.90;;;;;;5054887;28;20432;-61
2022/01/11 10:41:44;;;;;;;107.85;53.15;;;3.50;99.90;;;;;;5054252;28;20090;-60
2022/01/11 10:44:52;;;;;;;102.95;50.63;;;3.60;99.90;;;;;;5054672;28;20052;-60
2022/01/11 10:47:42;;;;;;;107.57;51.35;;;3.60;99.90;;;;;;5054222;28;20447;-60
2022/01/11 10:50:38;;;;;;;106.32;53.15;;;3.70;99.90;;;;;;5054260;28;20036;-62
2022/01/11 10:53:25;;;;;;;99.50;49.47;;;3.60;99.90;;;;;;5054254;28;20125;-61
2022/01/11 10:56:10;;;;;;;103.15;48.78;;;3.50;99.90;;;;;;5054667;28;20028;-60
2022/01/11 10:59:10;;;;;;;94.55;48.15;;;3.50;99.90;;;;;;5034534;28;20511;-59
2022/01/11 11:01:54;;;;;;;106.38;50.22;;;3.50;99.90;;;;;;5073121;28;20531;-58
2022/01/11 11:04:39;;;;;;;102.85;48.92;;;3.50;99.90;;;;;;5052528;28;20104;-60
2022/01/11 11:07:27;;;;;;;101.80;49.45;;;3.50;99.90;;;;;;5049712;28;20040;-61
2022/01/11 11:10:12;;;;;;;94.57;46.47;;;3.50;99.90;;;;;;5051816;28;20036;-59
2022/01/11 11:12:57;;;;;;;;;;;3.50;99.90;;;;;;5054069;28;20051;-61
2022/01/11 11:15:41;;;;;;;93.90;46.25;;;3.50;99.90;;;;;;5052340;28;20081;-58
2022/01/11 11:18:38;;;;;;;92.53;46.22;;;3.60;99.90;;;;;;5053230;28;20112;-59
2022/01/11 11:21:33;;;;;;;96.07;47.15;;;3.70;99.90;;;;;;5053463;28;20031;-60
2022/01/11 11:24:17;;;;;;;97.03;49.08;;;3.80;99.90;;;;;;5052453;28;20032;-59
2022/01/11 11:27:01;;;;;;;97.30;48.75;;;3.80;99.90;;;;;;5050789;28;20052;-63
2022/01/11 11:29:45;;;;;;;96.30;49.15;;;3.80;99.90;;;;;;5050182;28;20531;-58
2022/01/11 11:32:32;;;;;;;97.45;48.97;;;3.80;99.90;;;;;;5050125;28;20155;-59
2022/01/11 11:35:17;;;;;;;93.88;48.33;;;3.90;99.90;;;;;;5049899;28;20044;-59
2022/01/11 11:38:07;;;;;;;97.60;49.55;;;3.90;99.90;;;;;;5050350;28;20507;-57
2022/01/11 11:40:52;;;;;;;94.30;48.33;;;4.00;99.90;;;;;;5050375;28;20531;-60
2022/01/11 11:43:37;;;;;;;92.05;48.30;;;4.00;99.90;;;;;;5047458;28;20063;-61
2022/01/11 11:46:40;;;;;;;96.35;48.20;;;4.10;99.90;;;;;;5052926;28;20040;-61
2022/01/11 11:49:47;;;;;;;92.15;50.63;;;4.20;99.90;;;;;;5051322;28;20032;-61
2022/01/11 11:52:42;;;;;;;101.65;50.45;;;4.20;99.90;;;;;;5051668;28;20082;-59
2022/01/11 11:55:29;;;;;;;97.20;50.63;;;4.20;99.90;;;;;;5050331;28;20031;-57
2022/01/11 11:58:20;;;;;;;90.20;48.30;;;4.20;99.90;;;;;;5053139;28;20032;-55
2022/01/11 12:01:05;;;;;;;95.88;50.05;;;4.20;99.90;;;;;;5037325;28;20435;-58
2022/01/11 12:03:49;;;;;;;97.55;47.78;;;4.10;99.90;;;;;;5053586;28;20400;-60
2022/01/11 12:06:33;;;;;;;92.10;49.00;;;4.20;99.90;;;;;;5053390;28;20044;-58
2022/01/11 12:09:18;;;;;;;95.68;50.28;;;4.10;99.90;;;;;;5053676;28;20031;-60
2022/01/11 12:12:04;;;;;;;94.22;49.08;;;4.20;99.90;;;;;;5053933;28;20052;-59
2022/01/11 12:14:49;;;;;;;97.30;50.42;;;4.10;99.90;;;;;;5053892;28;20055;-58
2022/01/11 12:17:33;;;;;;;100.25;50.17;;;4.10;99.90;;;;;;5054159;28;20043;-62
2022/01/11 12:20:39;;;;;;;97.63;50.28;;;4.10;99.90;;;;;;5054557;28;20443;-57
2022/01/11 12:23:36;;;;;;;94.55;50.40;;;4.00;99.90;;;;;;5054332;28;20040;-60
2022/01/11 12:26:34;;;;;;;96.45;49.60;;;4.00;99.90;;;;;;5052544;28;20112;-58
2022/01/11 12:29:22;;;;;;;97.45;49.95;;;4.00;99.90;;;;;;5053387;28;20095;-60
2022/01/11 12:32:08;;;;;;;96.55;47.60;;;3.90;99.90;;;;;;5052184;28;20055;-60
2022/01/11 12:35:22;;;;;;;99.22;51.13;;;3.90;99.90;;;;;;5052912;28;20122;-54
2022/01/11 12:38:08;;;;;;;100.50;48.60;;;3.90;99.90;;;;;;5033551;28;20067;-59
2022/01/11 12:40:53;;;;;;;93.25;49.17;;;3.90;99.90;;;;;;5033303;28;20103;-57
2022/01/11 12:43:41;;;;;;;98.63;50.92;;;3.80;99.90;;;;;;5051762;28;20035;-59
2022/01/11 12:46:25;;;;;;;95.72;50.42;;;3.90;99.90;;;;;;5053152;28;20087;-59
2022/01/11 12:49:12;;;;;;;95.97;48.53;;;3.80;99.90;;;;;;5052808;28;20040;-57
2022/01/11 12:52:08;;;;;;;95.78;49.97;;;4.00;99.90;;;;;;5053367;28;20052;-58
2022/01/11 12:54:57;;;;;;;101.43;51.72;;;4.20;99.90;;;;;;5033357;28;20087;-59
2022/01/11 12:57:41;;;;;;;104.15;53.70;;;4.40;99.90;;;;;;5038299;28;20115;-61
2022/01/11 13:00:25;;;;;;;102.03;51.23;;;4.40;99.90;;;;;;5052917;28;20456;-60
2022/01/11 13:03:09;;;;;;;104.50;53.28;;;4.30;99.90;;;;;;5052579;28;20047;-62
2022/01/11 13:05:54;;;;;;;108.55;52.78;;;4.20;99.90;;;;;;5052715;28;20032;-60
2022/01/11 13:08:42;;;;;;;97.65;50.88;;;4.20;99.90;;;;;;5053748;28;20044;-58
2022/01/11 13:11:27;;;;;;;99.93;52.92;;;4.10;99.90;;;;;;5035962;28;20512;-61
2022/01/11 13:14:31;;;;;;;102.35;51.47;;;4.10;99.90;;;;;;5051990;28;20048;-57
2022/01/11 13:17:15;;;;;;;102.25;53.15;;;4.10;99.90;;;;;;5054403;28;20533;-63
2022/01/11 13:20:08;;;;;;;104.40;54.75;;;4.10;99.90;;;;;;5037324;28;20041;-60
2022/01/11 13:23:20;;;;;;;106.10;56.45;;;4.00;99.90;;;;;;5047221;28;20112;-63
2022/01/11 13:26:12;;;;;;;104.63;53.38;;;3.90;99.90;;;;;;5056845;28;20032;-65
2022/01/11 13:28:58;;;;;;;110.65;53.53;;;3.80;99.90;;;;;;5057357;28;20095;-63
2022/01/11 13:31:46;;;;;;;113.30;58.22;;;3.80;99.90;;;;;;5055557;28;20412;-58
2022/01/11 13:34:33;;;;;;;120.10;58.38;;;3.70;99.90;;;;;;5039172;28;20459;-60
2022/01/11 13:37:26;;;;;;;112.07;55.25;;;3.80;99.90;;;;;;5055900;28;20447;-60
2022/01/11 13:40:11;;;;;;;109.40;54.95;;;3.70;99.90;;;;;;5036682;28;20044;-61
2022/01/11 13:43:03;;;;;;;117.40;57.58;;;3.60;99.90;;;;;;5053993;28;20047;-59
2022/01/11 13:45:47;;;;;;;118.05;56.90;;;3.50;99.90;;;;;;5056361;28;20056;-61
2022/01/11 13:48:36;;;;;;;112.80;57.35;;;3.50;99.90;;;;;;5047433;28;20570;-59
2022/01/11 13:51:29;;;;;;;113.93;56.95;;;3.50;99.90;;;;;;5055779;28;20090;-57
2022/01/11 13:54:15;;;;;;;112.40;57.38;;;3.50;99.90;;;;;;5055675;28;20083;-59
2022/01/11 13:57:01;;;;;;;117.97;57.80;;;3.50;99.90;;;;;;5056386;28;20036;-58
2022/01/11 13:59:54;;;;;;;119.90;57.53;;;3.50;99.90;;;;;;5055996;28;20036;-55
2022/01/11 14:02:40;;;;;;;121.88;60.95;;;3.50;99.90;;;;;;5055475;28;20089;-54
2022/01/11 14:05:29;;;;;;;121.70;57.05;;;3.50;99.90;;;;;;5055120;28;20044;-58
2022/01/11 14:08:13;;;;;;;115.13;56.30;;;3.50;99.90;;;;;;5034911;28;20032;-55
2022/01/11 14:11:08;;;;;;;118.97;58.00;;;3.50;99.90;;;;;;5034839;28;20366;-60
2022/01/11 14:14:01;;;;;;;117.43;54.60;;;3.40;99.90;;;;;;5035026;28;20607;-53
2022/01/11 14:16:46;;;;;;;121.15;58.97;;;3.50;99.90;;;;;;5035524;28;20036;-58
2022/01/11 14:19:30;;;;;;;120.93;56.63;;;3.40;99.90;;;;;;5035124;28;20064;-59
2022/01/11 14:22:15;;;;;;;112.63;54.20;;;3.50;99.90;;;;;;5040189;28;20594;-60